Qiryat Bialik, Israel
Current Conditions -  °F | °C
As of 7:50 PM on Friday 28 Nov 2014 (Local Time) from LLHA Reporting Station
Few Clouds Few Clouds  
Wind Chill: 15°   Ceiling: Unl
Heat Index: 15°   Visibility: 6mi
Dew Point: 11°   Wind: 3mph
Humidity: 77%   Direction: NA
Pressure: 30.24"   Gusts: NA
Location:  32.83°N, 35.08°E
Report Text: LLHA 281650Z VRB03KT 9999 FEW030 15/11 Q1024
Loading
Personal Weather Stations






























Interactive Weather Map New forecast layout! Learn more

10-Day Weather Forecast

Advertisements
Track Severe Weather on mobile